Time;durP1;ratioP1;P1;durP2;ratioP2;P2;SDS_P1;SDS_P2;PMS_P1;PMS_P2;Temp;Humidity;BMP_temperature;BMP_pressure;BME280_temperature;BME280_humidity;BME280_pressure;Samples;Min_cycle;Max_cycle;Signal;HPM_P1;HPM_P2
2024/01/20 00:00:21;;;;;;;0.90;0.80;;;0.10;99.90;;;-0.13;92.46;101469.41;6246911;22;20160;-69
2024/01/20 00:02:50;;;;;;;0.95;0.85;;;0.10;99.90;;;-0.15;92.89;101467.84;6246641;23;20226;-70
2024/01/20 00:05:19;;;;;;;3.83;1.80;;;0.00;99.90;;;-0.23;93.34;101468.41;6246913;22;20503;-69
2024/01/20 00:07:48;;;;;;;2.67;2.45;;;0.00;99.90;;;-0.28;94.13;101464.41;6247053;22;20184;-68
2024/01/20 00:10:18;;;;;;;1.33;1.15;;;-0.10;99.90;;;-0.24;93.99;101471.22;6271207;22;20516;-71
2024/01/20 00:12:47;;;;;;;1.70;1.02;;;-0.10;99.90;;;-0.25;94.08;101480.16;6248088;23;20144;-69
2024/01/20 00:15:15;;;;;;;0.90;0.63;;;0.00;99.90;;;-0.29;94.57;101474.19;6247708;23;20315;-68
2024/01/20 00:17:46;;;;;;;5.85;2.50;;;-0.10;99.90;;;-0.28;94.32;101475.06;6247608;22;20664;-69
2024/01/20 00:20:15;;;;;;;12.05;3.42;;;-0.10;99.90;;;-0.25;94.21;101483.66;6247775;22;20164;-70
2024/01/20 00:22:44;;;;;;;6.50;2.42;;;0.00;99.90;;;-0.25;94.42;101466.84;6246554;23;20179;-68
2024/01/20 00:25:13;;;;;;;2.38;1.42;;;-0.10;99.90;;;-0.25;93.88;101474.84;6246974;23;20176;-69
2024/01/20 00:27:43;;;;;;;3.28;2.50;;;-0.10;99.90;;;-0.34;95.11;101472.88;6247452;22;20188;-67
2024/01/20 00:30:13;;;;;;;1.75;1.25;;;-0.10;99.90;;;-0.32;94.93;101484.25;6245588;23;20247;-69
2024/01/20 00:32:41;;;;;;;4.82;2.65;;;-0.10;99.90;;;-0.21;95.03;101476.28;6247456;22;20231;-69
2024/01/20 00:35:10;;;;;;;3.47;3.25;;;-0.10;99.90;;;-0.04;93.74;101481.97;6247037;23;20214;-68
2024/01/20 00:37:39;;;;;;;1.23;1.10;;;0.00;99.90;;;-0.07;94.26;101478.72;6247229;22;20524;-69
2024/01/20 00:40:09;;;;;;;0.95;0.77;;;0.00;99.90;;;-0.05;94.13;101482.94;6248309;22;20153;-69
2024/01/20 00:42:38;;;;;;;1.77;1.25;;;0.10;99.90;;;-0.04;93.83;101483.78;6249595;23;20172;-71
2024/01/20 00:45:09;;;;;;;2.30;2.10;;;0.10;99.90;;;0.03;93.45;101500.13;6248568;23;20235;-69
2024/01/20 00:47:38;;;;;;;2.70;2.60;;;0.10;99.90;;;0.10;92.96;101499.53;6247420;22;20206;-68
2024/01/20 00:50:08;;;;;;;3.40;2.47;;;0.20;99.90;;;0.16;92.57;101503.53;6246422;23;20148;-69
2024/01/20 00:52:37;;;;;;;5.85;1.80;;;0.20;99.90;;;0.19;91.86;101497.97;6246565;22;20167;-67
2024/01/20 00:55:07;;;;;;;0.80;0.63;;;0.30;99.90;;;0.15;91.53;101500.00;6246532;23;20221;-69
2024/01/20 00:57:36;;;;;;;3.03;1.85;;;0.30;99.90;;;0.06;92.46;101513.19;6246332;22;20187;-69
2024/01/20 01:00:09;;;;;;;2.50;1.80;;;0.20;99.90;;;-0.05;92.83;101506.06;6250915;23;20168;-69
2024/01/20 01:02:39;;;;;;;1.23;0.88;;;0.20;99.90;;;-0.13;92.85;101508.44;6256837;23;20172;-67
2024/01/20 01:05:09;;;;;;;1.92;1.83;;;0.10;99.90;;;-0.22;93.51;101510.00;6248873;23;20176;-69
2024/01/20 01:07:38;;;;;;;1.40;1.30;;;0.10;99.90;;;-0.21;93.65;101513.53;6256165;22;20234;-68
2024/01/20 01:10:08;;;;;;;0.98;0.85;;;0.00;99.90;;;-0.24;93.85;101514.59;6251412;23;20160;-69
2024/01/20 01:12:37;;;;;;;2.45;2.30;;;-0.10;99.90;;;-0.28;93.85;101528.25;6251938;22;20179;-69
2024/01/20 01:15:08;;;;;;;2.55;1.23;;;-0.10;99.90;;;-0.28;93.75;101533.56;6251774;22;20585;-68
2024/01/20 01:17:37;;;;;;;1.85;1.25;;;-0.10;99.90;;;-0.30;93.46;101536.38;6257867;22;20175;-68
2024/01/20 01:20:08;;;;;;;14.82;1.75;;;-0.10;99.90;;;-0.28;94.36;101544.19;6253764;23;20172;-69
2024/01/20 01:22:37;;;;;;;1.85;1.48;;;-0.10;99.90;;;-0.22;94.02;101544.59;6249670;23;20168;-69
2024/01/20 01:25:09;;;;;;;1.10;0.90;;;-0.10;99.90;;;-0.09;94.12;101544.50;6251488;23;20172;-69
2024/01/20 01:27:37;;;;;;;1.77;1.67;;;0.00;99.90;;;0.02;93.06;101547.19;6250580;22;20566;-71
2024/01/20 01:30:10;;;;;;;4.00;3.65;;;0.10;99.90;;;0.08;93.38;101552.03;6250101;23;20168;-69
2024/01/20 01:32:38;;;;;;;1.77;1.45;;;0.10;99.90;;;0.15;93.04;101561.22;6251882;22;20198;-68
2024/01/20 01:35:32;;;;;;;0.95;0.85;;;0.20;99.90;;;0.22;92.39;101546.50;6252188;22;20607;-68
2024/01/20 01:38:00;;;;;;;2.25;1.25;;;0.30;99.90;;;0.27;91.92;101568.28;6252008;23;20187;-69
2024/01/20 01:40:29;;;;;;;2.67;1.73;;;0.40;99.90;;;0.31;92.08;101569.72;6250944;23;20194;-69
2024/01/20 01:42:58;;;;;;;2.97;2.78;;;0.40;99.90;;;0.31;91.76;101559.06;6250638;23;20172;-68
2024/01/20 01:45:28;;;;;;;1.50;1.40;;;0.40;99.90;;;0.32;91.48;101566.09;6274072;22;20167;-68
2024/01/20 01:47:58;;;;;;;2.55;2.35;;;0.40;99.90;;;0.22;91.59;101569.59;6251118;23;20156;-69
2024/01/20 01:50:27;;;;;;;2.47;2.20;;;0.40;99.90;;;0.23;91.69;101556.19;6252018;23;20156;-68
2024/01/20 01:52:58;;;;;;;3.17;2.88;;;0.40;99.90;;;0.21;92.25;101567.91;6248826;23;20160;-71
2024/01/20 01:55:27;;;;;;;2.80;1.63;;;0.30;99.90;;;0.18;91.61;101569.00;6248933;22;20144;-68
2024/01/20 01:57:57;;;;;;;2.90;2.35;;;0.30;99.90;;;0.20;92.48;101567.03;6248245;22;20238;-67
2024/01/20 02:00:27;;;;;;;8.82;3.67;;;0.30;99.90;;;0.17;92.50;101564.63;6248734;22;20582;-69
2024/01/20 02:02:57;;;;;;;1.70;0.70;;;0.30;99.90;;;0.20;92.25;101558.22;6248039;22;20215;-71
2024/01/20 02:05:25;;;;;;;3.17;1.90;;;0.30;99.90;;;0.11;92.60;101562.44;6248329;23;20228;-69
2024/01/20 02:07:55;;;;;;;4.50;2.67;;;0.30;99.90;;;-0.10;93.20;101558.78;6272648;22;20188;-68
2024/01/20 02:10:24;;;;;;;4.45;3.22;;;0.10;99.90;;;-0.12;94.17;101566.88;6249127;22;20227;-69
2024/01/20 02:12:54;;;;;;;3.67;3.00;;;0.10;99.90;;;-0.16;93.93;101561.91;6248958;22;20160;-70
2024/01/20 02:15:24;;;;;;;4.28;3.65;;;0.00;99.90;;;-0.20;93.95;101557.78;6248842;23;20227;-69
2024/01/20 02:17:56;;;;;;;2.75;2.55;;;0.00;99.90;;;-0.19;95.05;101557.66;6247478;22;20184;-70
2024/01/20 02:20:25;;;;;;;2.30;2.20;;;0.00;99.90;;;-0.20;94.91;101558.66;6248658;22;20164;-68
2024/01/20 02:22:56;;;;;;;1.65;1.15;;;0.00;99.90;;;-0.24;94.51;101559.00;6247796;23;20627;-69
2024/01/20 02:25:24;;;;;;;1.50;1.40;;;-0.10;99.90;;;-0.20;95.54;101560.44;6249083;22;20160;-69
2024/01/20 02:27:53;;;;;;;3.20;1.45;;;0.00;99.90;;;-0.19;95.04;101556.81;6248740;22;20180;-70
2024/01/20 02:30:21;;;;;;;1.20;1.10;;;0.00;99.90;;;-0.19;94.45;101567.44;6247918;23;20539;-68
2024/01/20 02:32:50;;;;;;;1.52;1.42;;;0.00;99.90;;;-0.15;94.64;101561.81;6272478;22;20172;-67
2024/01/20 02:35:19;;;;;;;2.10;1.58;;;0.00;99.90;;;-0.09;95.63;101557.78;6248283;23;20144;-69
2024/01/20 02:37:48;;;;;;;1.50;1.40;;;0.00;99.90;;;-0.12;95.61;101564.22;6248645;22;20187;-68
2024/01/20 02:40:18;;;;;;;3.30;3.05;;;0.00;99.90;;;-0.07;95.35;101564.72;6248402;22;20164;-68
2024/01/20 02:42:46;;;;;;;2.17;1.25;;;0.10;99.90;;;-0.06;94.72;101566.41;6247287;23;20759;-69
2024/01/20 02:45:15;;;;;;;3.67;3.38;;;0.10;99.90;;;0.08;95.64;101567.16;6246850;23;20614;-68
2024/01/20 02:47:44;;;;;;;1.95;1.75;;;0.10;99.90;;;0.02;95.67;101573.78;6246753;22;20230;-65
2024/01/20 02:50:13;;;;;;;3.25;1.45;;;0.10;1.00;;;0.04;95.17;101577.19;6246945;23;20152;-69
2024/01/20 02:52:41;;;;;;;5.50;5.30;;;0.20;1.00;;;-0.03;95.03;101571.50;6246559;22;20167;-69
2024/01/20 02:55:10;;;;;;;3.13;2.45;;;0.20;1.00;;;0.02;94.92;101567.63;6247142;23;20509;-68
2024/01/20 02:57:40;;;;;;;3.22;3.03;;;0.10;1.00;;;0.04;95.09;101563.88;6247070;22;20207;-69
2024/01/20 03:00:10;;;;;;;1.98;1.77;;;0.20;1.00;;;0.02;95.47;101563.16;6247739;23;20591;-69
2024/01/20 03:02:39;;;;;;;1.30;0.98;;;0.20;1.00;;;0.09;95.74;101575.03;6247392;23;20172;-69
2024/01/20 03:05:08;;;;;;;3.42;2.42;;;0.20;1.00;;;-0.01;95.25;101556.25;6270592;22;20199;-68
2024/01/20 03:07:37;;;;;;;2.08;1.05;;;0.20;1.00;;;-0.01;95.51;101580.22;6248427;22;20191;-69
2024/01/20 03:10:07;;;;;;;1.70;1.60;;;0.20;1.00;;;0.02;95.94;101571.13;6247306;22;20528;-68
2024/01/20 03:12:36;;;;;;;1.50;1.40;;;0.20;1.00;;;0.06;96.46;101572.59;6247471;22;20153;-69
2024/01/20 03:15:08;;;;;;;1.70;1.55;;;0.20;1.00;;;0.10;96.30;101574.03;6247883;23;20164;-69
2024/01/20 03:17:37;;;;;;;1.75;1.65;;;0.20;1.00;;;0.08;95.93;101580.47;6247000;22;20279;-70
2024/01/20 03:20:08;;;;;;;3.47;2.15;;;0.20;1.00;;;0.04;95.88;101581.66;6246835;23;20172;-68
2024/01/20 03:22:37;;;;;;;4.70;2.47;;;0.20;1.00;;;0.05;95.97;101583.38;6247818;23;20163;-69
2024/01/20 03:25:06;;;;;;;3.45;1.60;;;0.20;1.00;;;0.05;96.41;101586.84;6246751;23;20172;-69
2024/01/20 03:27:36;;;;;;;2.03;1.92;;;0.20;1.00;;;0.04;96.05;101582.53;6247014;22;20196;-69
2024/01/20 03:30:08;;;;;;;5.60;1.63;;;0.20;1.00;;;0.02;96.23;101586.25;6246826;23;20176;-69
2024/01/20 03:32:36;;;;;;;2.40;2.20;;;0.20;1.00;;;-0.02;96.46;101589.16;6245384;23;20168;-69
2024/01/20 03:35:05;;;;;;;3.63;2.20;;;0.20;1.00;;;-0.11;97.22;101592.53;6246468;23;20155;-69
2024/01/20 03:37:33;;;;;;;1.48;1.38;;;0.10;1.00;;;-0.07;96.65;101590.47;6247552;22;20183;-69
2024/01/20 03:40:03;;;;;;;3.00;2.80;;;0.10;1.00;;;-0.15;97.21;101593.72;6246418;23;20243;-69
2024/01/20 03:42:31;;;;;;;2.28;2.15;;;0.00;1.00;;;-0.11;97.59;101584.53;6246843;22;20160;-69
2024/01/20 03:44:59;;;;;;;3.97;1.63;;;0.10;1.00;;;-0.04;97.19;101595.53;6248271;23;20180;-69
2024/01/20 03:47:29;;;;;;;1.52;1.42;;;0.10;1.00;;;0.00;97.13;101597.03;6253707;22;20226;-70
2024/01/20 03:50:00;;;;;;;1.83;1.48;;;0.10;1.00;;;0.08;96.96;101597.28;6251952;22;20164;-69
2024/01/20 03:52:28;;;;;;;3.88;3.67;;;0.20;1.00;;;0.10;96.72;101600.66;6248527;23;20156;-70
2024/01/20 03:54:57;;;;;;;3.40;3.10;;;0.20;1.00;;;0.13;96.88;101613.75;6247490;23;20643;-70
2024/01/20 03:57:25;;;;;;;7.63;3.10;;;0.30;1.00;;;0.23;96.05;101614.75;6246742;22;20184;-70
2024/01/20 03:59:54;;;;;;;2.05;1.67;;;0.30;1.00;;;0.38;95.88;101616.22;6247182;23;20164;-68
2024/01/20 04:02:23;;;;;;;6.72;4.72;;;0.40;1.00;;;0.41;95.58;101607.97;6247715;23;20170;-68
2024/01/20 04:04:52;;;;;;;2.05;1.95;;;0.50;1.00;;;0.48;95.51;101623.50;6247451;23;20190;-70
2024/01/20 04:07:23;;;;;;;3.15;2.47;;;0.50;1.00;;;0.60;95.75;101626.03;6246769;22;20504;-69
2024/01/20 04:09:51;;;;;;;6.22;2.55;;;0.60;1.00;;;0.63;94.97;101627.63;6247705;23;20168;-71
2024/01/20 04:12:20;;;;;;;2.78;2.58;;;0.70;1.00;;;0.59;94.95;101632.31;6249153;23;20604;-69
2024/01/20 04:14:50;;;;;;;5.03;4.63;;;0.70;1.00;;;0.71;94.88;101626.03;6249996;22;20160;-67
2024/01/20 04:20:20;;;;;;;3.50;3.17;;;0.70;1.00;;;0.45;95.54;101635.22;6235422;22;20225;-68
2024/01/20 04:22:48;;;;;;;13.52;4.85;;;0.60;1.00;;;0.42;95.84;101636.31;6278167;22;20158;-69
2024/01/20 04:25:17;;;;;;;2.03;1.88;;;0.60;1.00;;;0.45;97.13;101632.53;6277701;22;20270;-69
2024/01/20 04:27:45;;;;;;;8.75;3.55;;;0.60;1.00;;;0.40;96.08;101610.75;6278049;22;20222;-70
2024/01/20 04:30:14;;;;;;;2.72;2.58;;;0.60;1.00;;;0.38;96.22;101634.84;6277303;22;20154;-69
2024/01/20 04:32:43;;;;;;;2.83;2.60;;;0.50;1.00;;;0.28;96.60;101635.69;6277859;22;20151;-69
2024/01/20 04:35:11;;;;;;;3.40;3.00;;;0.40;1.00;;;0.27;97.15;101621.50;6277199;22;20239;-69
2024/01/20 04:37:41;;;;;;;2.75;2.55;;;0.40;1.00;;;0.28;96.98;101636.53;6276538;22;20186;-68
2024/01/20 04:40:11;;;;;;;8.63;5.38;;;0.40;1.00;;;0.27;97.59;101624.19;6276413;22;20148;-69
2024/01/20 04:42:39;;;;;;;2.83;2.63;;;0.40;1.00;;;0.25;97.76;101620.78;6276277;22;20171;-69
2024/01/20 04:45:11;;;;;;;3.78;3.47;;;0.40;1.00;;;0.29;97.50;101624.88;6276359;22;20191;-69
2024/01/20 04:47:39;;;;;;;3.53;3.22;;;0.40;1.00;;;0.33;97.69;101626.38;6276401;22;20206;-69
2024/01/20 04:50:09;;;;;;;4.45;3.95;;;0.50;1.00;;;0.32;97.02;101635.31;6276443;22;20242;-69
2024/01/20 04:52:37;;;;;;;3.92;3.42;;;0.50;1.00;;;0.23;97.70;101633.38;6276781;22;20152;-69
2024/01/20 04:55:08;;;;;;;2.55;2.17;;;0.40;1.00;;;0.21;97.35;101640.63;6276541;22;20166;-70
2024/01/20 04:57:37;;;;;;;4.55;3.78;;;0.40;1.00;;;0.23;97.67;101644.03;6276883;22;20559;-69
2024/01/20 05:00:07;;;;;;;8.60;3.08;;;0.40;1.00;;;0.15;98.22;101630.44;6278323;22;20159;-70
2024/01/20 05:02:36;;;;;;;3.75;2.53;;;0.30;1.00;;;0.14;98.20;101639.41;6276289;22;20538;-69
2024/01/20 05:05:06;;;;;;;3.88;2.97;;;0.30;1.00;;;0.07;98.62;101643.47;6276144;22;20218;-70
2024/01/20 05:07:34;;;;;;;4.68;3.33;;;0.30;1.00;;;0.01;98.86;101651.91;6276359;22;20179;-70
2024/01/20 05:10:03;;;;;;;2.10;1.90;;;0.30;1.00;;;0.06;99.36;101648.91;6276009;22;20494;-69
2024/01/20 05:12:33;;;;;;;2.75;2.45;;;0.20;1.00;;;0.03;99.51;101655.34;6248709;22;20171;-69
2024/01/20 05:15:01;;;;;;;3.03;2.15;;;0.30;1.00;;;0.15;99.39;101666.84;6275950;22;20549;-67
2024/01/20 05:17:30;;;;;;;2.53;2.35;;;0.30;99.90;;;0.32;98.34;101658.44;6275985;22;20183;-70
2024/01/20 05:19:58;;;;;;;2.42;2.22;;;0.40;99.90;;;0.44;98.56;101671.63;6275919;22;20244;-68
2024/01/20 05:22:27;;;;;;;2.65;2.25;;;0.50;99.90;;;0.33;98.53;101653.00;6276049;22;20195;-69
2024/01/20 05:24:56;;;;;;;4.20;3.90;;;0.50;99.90;;;0.20;98.38;101662.00;6250793;22;20209;-69
2024/01/20 05:27:24;;;;;;;4.82;2.35;;;0.40;99.90;;;0.18;98.62;101666.63;6278381;22;20211;-71
2024/01/20 05:29:57;;;;;;;3.97;3.55;;;0.40;99.90;;;0.19;98.75;101658.53;6278753;22;20148;-69
2024/01/20 05:32:26;;;;;;;4.10;3.80;;;0.40;99.90;;;0.23;99.46;101683.94;6278494;22;20159;-69
2024/01/20 05:34:54;;;;;;;2.00;1.75;;;0.40;99.90;;;0.24;99.21;101679.47;6278103;22;20547;-70
2024/01/20 05:37:23;;;;;;;6.00;3.00;;;0.40;99.90;;;0.25;99.15;101682.00;6276602;22;20221;-68
2024/01/20 05:39:52;;;;;;;2.28;2.08;;;0.40;99.90;;;0.35;99.39;101672.34;6278107;22;20199;-69
2024/01/20 05:42:20;;;;;;;3.88;3.03;;;0.40;99.90;;;0.40;99.13;101672.84;6277768;22;20231;-69
2024/01/20 05:44:48;;;;;;;3.10;2.75;;;0.50;99.90;;;0.48;98.40;101672.28;6278317;22;20175;-71
2024/01/20 05:47:18;;;;;;;10.55;1.80;;;0.60;99.90;;;0.46;98.31;101678.66;6278000;22;20655;-68
2024/01/20 05:49:50;;;;;;;5.13;3.80;;;0.60;99.90;;;0.50;98.63;101672.97;6277902;22;20576;-69
2024/01/20 05:52:18;;;;;;;4.47;2.78;;;0.60;99.90;;;0.41;98.81;101671.88;6278273;22;20528;-70
2024/01/20 05:54:47;;;;;;;3.80;3.63;;;0.60;99.90;;;0.35;99.35;101672.34;6278578;22;20182;-70
2024/01/20 05:57:15;;;;;;;14.70;7.65;;;0.60;99.90;;;0.36;99.42;101665.22;6279093;22;20717;-70
2024/01/20 05:59:44;;;;;;;2.70;2.50;;;0.50;99.90;;;0.33;99.67;101668.97;6278973;22;20167;-70
2024/01/20 06:02:12;;;;;;;6.45;4.63;;;0.50;99.90;;;0.34;100.00;101673.31;6279329;22;20186;-69
2024/01/20 06:04:42;;;;;;;3.15;2.88;;;0.50;99.90;;;0.31;99.74;101665.56;6280715;22;20548;-69
2024/01/20 06:07:11;;;;;;;5.22;4.80;;;0.50;99.90;;;0.35;99.82;101664.38;6279168;22;20187;-70
2024/01/20 06:09:39;;;;;;;1.98;1.77;;;0.50;99.90;;;0.35;99.98;101674.16;6279031;22;20160;-69
2024/01/20 06:12:09;;;;;;;11.82;3.05;;;0.50;99.90;;;0.38;99.86;101674.81;6279169;22;20163;-69
2024/01/20 06:14:37;;;;;;;4.35;3.90;;;0.50;99.90;;;0.34;100.00;101672.47;6282291;22;20159;-70
2024/01/20 06:17:06;;;;;;;3.53;3.22;;;0.50;99.90;;;0.34;100.00;101675.97;6278712;22;20547;-70
2024/01/20 06:19:34;;;;;;;2.05;1.85;;;0.50;99.90;;;0.32;100.00;101687.72;6278305;22;20530;-70
2024/01/20 06:22:04;;;;;;;2.08;1.88;;;0.50;99.90;;;0.28;100.00;101681.78;6278213;22;20650;-69
2024/01/20 06:24:33;;;;;;;3.05;2.78;;;0.50;99.90;;;0.18;100.00;101683.44;6278460;22;20152;-71
2024/01/20 06:27:01;;;;;;;4.47;3.50;;;0.40;99.90;;;0.22;100.00;101684.06;6278416;22;20667;-69
2024/01/20 06:29:29;;;;;;;1.85;1.45;;;0.40;99.90;;;0.19;100.00;101693.13;6278425;22;20206;-70
2024/01/20 06:31:58;;;;;;;4.75;4.35;;;0.40;99.90;;;0.14;100.00;101695.31;6278499;22;20166;-70
2024/01/20 06:34:26;;;;;;;3.72;3.35;;;0.40;99.90;;;0.18;100.00;101706.56;6279783;22;20231;-71
2024/01/20 06:36:55;;;;;;;7.60;4.50;;;0.30;99.90;;;0.12;100.00;101710.53;6279259;22;20484;-70
2024/01/20 06:39:26;;;;;;;3.45;3.25;;;0.30;99.90;;;0.11;100.00;101705.31;6280187;22;20152;-69
2024/01/20 06:41:55;;;;;;;6.88;6.40;;;0.30;99.90;;;0.11;100.00;101708.81;6279464;22;20164;-68
2024/01/20 06:45:38;;;;;;;2.00;1.90;;;0.30;99.90;;;0.01;100.00;101715.78;6279274;22;20242;-70
2024/01/20 06:48:09;;;;;;;2.22;2.13;;;0.20;99.90;;;0.11;100.00;101727.44;6279950;22;20152;-70
2024/01/20 06:50:43;;;;;;;5.38;4.40;;;0.20;99.90;;;0.14;100.00;101715.75;6280284;22;20646;-70
2024/01/20 06:53:12;;;;;;;3.65;3.10;;;0.30;99.90;;;0.12;100.00;101723.81;6279571;22;20154;-69
2024/01/20 06:55:42;;;;;;;3.17;2.97;;;0.30;99.90;;;0.14;100.00;101715.75;6279478;22;20209;-70
2024/01/20 06:58:10;;;;;;;4.75;4.35;;;0.30;99.90;;;0.06;100.00;101713.63;6252565;22;20163;-71
2024/01/20 07:00:39;;;;;;;2.30;2.10;;;0.30;99.90;;;0.04;100.00;101715.59;6280001;22;20156;-69
2024/01/20 07:03:07;;;;;;;3.70;2.85;;;0.30;99.90;;;0.03;100.00;101713.03;6279197;22;20148;-70
2024/01/20 07:05:36;;;;;;;5.22;2.72;;;0.20;99.90;;;0.07;100.00;101719.81;6280432;22;20183;-68
2024/01/20 07:08:06;;;;;;;3.72;3.53;;;0.20;99.90;;;0.08;100.00;101717.03;6278976;22;20186;-70
2024/01/20 07:10:35;;;;;;;5.53;5.07;;;0.20;99.90;;;0.06;100.00;101718.97;6281047;22;20197;-71
2024/01/20 07:13:05;;;;;;;2.05;1.80;;;0.20;99.90;;;0.16;100.00;101719.97;6279776;22;20205;-70
2024/01/20 07:15:33;;;;;;;4.45;3.90;;;0.30;99.90;;;0.23;100.00;101736.34;6277443;22;20217;-68
2024/01/20 07:18:03;;;;;;;5.50;4.97;;;0.30;99.90;;;0.43;100.00;101747.19;6249975;22;20251;-69
2024/01/20 07:20:32;;;;;;;4.63;4.32;;;0.40;99.90;;;0.60;100.00;101753.03;6276922;22;20731;-71
2024/01/20 07:23:01;;;;;;;2.55;2.03;;;0.60;99.90;;;0.71;100.00;101753.06;6277146;22;20593;-70
2024/01/20 07:25:29;;;;;;;3.95;2.47;;;0.70;99.90;;;0.87;99.07;101759.75;6277243;22;20182;-67
2024/01/20 07:27:58;;;;;;;3.10;2.85;;;0.80;99.90;;;0.94;98.87;101754.78;6277342;22;20665;-71
2024/01/20 07:30:28;;;;;;;6.22;5.72;;;0.90;99.90;;;1.06;99.39;101761.84;6276923;22;20167;-69
2024/01/20 07:32:58;;;;;;;3.45;3.25;;;1.00;99.90;;;0.97;98.42;101762.53;6277064;22;20172;-70
2024/01/20 07:35:27;;;;;;;1.42;1.33;;;1.00;99.90;;;1.15;97.89;101769.13;6277152;22;20209;-69
2024/01/20 07:37:55;;;;;;;5.15;4.47;;;1.10;99.90;;;1.19;97.86;101769.72;6277312;22;20179;-69
2024/01/20 07:40:24;;;;;;;3.40;3.15;;;1.20;99.90;;;1.13;97.19;101779.06;6277176;22;20156;-69
2024/01/20 07:42:52;;;;;;;6.05;2.92;;;1.20;99.90;;;1.17;97.43;101780.50;6277306;22;20163;-71
2024/01/20 07:45:20;;;;;;;2.60;2.50;;;1.20;99.90;;;1.09;97.07;101769.59;6276397;22;20160;-69
2024/01/20 07:47:50;;;;;;;3.67;2.22;;;1.20;99.90;;;1.24;97.51;101779.06;6276476;22;20180;-70
2024/01/20 07:50:19;;;;;;;4.32;2.85;;;1.30;99.90;;;1.24;96.81;101779.06;6276644;22;20198;-68
2024/01/20 07:52:47;;;;;;;4.35;3.03;;;1.30;99.90;;;1.17;96.66;101772.50;6277124;22;20515;-68
2024/01/20 07:55:16;;;;;;;4.97;4.47;;;1.20;99.90;;;1.30;97.05;101777.75;6276314;22;20187;-70
2024/01/20 07:57:44;;;;;;;4.35;4.05;;;1.30;99.90;;;1.49;96.84;101795.81;6276451;22;20639;-70
2024/01/20 08:00:13;;;;;;;4.68;4.18;;;1.50;99.90;;;1.52;95.63;101792.88;6249645;22;20175;-70
2024/01/20 08:07:21;;;;;;;5.80;5.35;;;1.60;99.90;;;1.38;94.90;101793.13;6276707;22;20275;-66
2024/01/20 08:09:49;;;;;;;6.15;4.43;;;1.50;99.90;;;1.49;95.32;101803.81;6277222;22;20538;-70
2024/01/20 08:12:18;;;;;;;5.20;2.83;;;1.50;99.90;;;1.41;95.70;101807.06;6276801;22;20160;-66
2024/01/20 08:14:46;;;;;;;8.77;4.05;;;1.50;99.90;;;1.35;95.31;101812.03;6276687;22;20615;-69
2024/01/20 08:17:15;;;;;;;4.05;2.83;;;1.40;99.90;;;1.46;95.31;101798.69;6277629;22;20175;-69
2024/01/20 08:19:45;;;;;;;9.27;4.15;;;1.50;99.90;;;1.47;94.47;101811.06;6276555;22;20181;-69
2024/01/20 08:22:14;;;;;;;3.92;3.63;;;1.50;99.90;;;1.44;94.17;101808.66;6277050;22;20226;-69
2024/01/20 08:24:43;;;;;;;10.25;3.05;;;1.50;99.90;;;1.28;94.56;101807.19;6275774;22;20250;-68
2024/01/20 08:27:12;;;;;;;3.47;3.15;;;1.40;99.90;;;1.30;94.52;101813.25;6276894;22;20214;-69
2024/01/20 08:29:40;;;;;;;7.80;3.35;;;1.40;99.90;;;1.33;94.33;101804.16;6276864;22;20155;-70
2024/01/20 08:32:09;;;;;;;3.95;3.58;;;1.40;99.90;;;1.39;94.72;101813.50;6277164;22;20148;-68
2024/01/20 08:34:38;;;;;;;4.40;4.15;;;1.40;99.90;;;1.42;94.78;101813.25;6277258;22;20500;-67
2024/01/20 08:37:07;;;;;;;2.78;2.58;;;1.40;99.90;;;1.40;94.18;101809.88;6276498;22;20690;-70
2024/01/20 08:39:35;;;;;;;2.20;1.90;;;1.40;99.90;;;1.37;94.16;101823.44;6276809;22;20557;-69
2024/01/20 08:42:06;;;;;;;4.85;4.45;;;1.40;99.90;;;1.39;93.75;101826.84;6276803;22;20151;-68
2024/01/20 08:44:35;;;;;;;1.55;1.45;;;1.40;99.90;;;1.55;94.43;101825.47;6276575;22;20155;-69
2024/01/20 08:47:30;;;;;;;3.28;2.35;;;1.50;99.90;;;1.63;93.30;101827.56;6276406;22;20189;-69
2024/01/20 08:49:59;;;;;;;10.98;5.75;;;1.60;99.90;;;1.53;93.82;101837.25;6277713;22;20147;-69
2024/01/20 08:52:27;;;;;;;3.28;2.65;;;1.50;99.90;;;1.58;94.11;101835.09;6284245;22;20589;-69
2024/01/20 08:54:55;;;;;;;3.63;3.08;;;1.60;99.90;;;1.55;93.43;101830.81;6283433;22;20160;-67
2024/01/20 08:57:29;;;;;;;7.25;3.10;;;1.60;99.90;;;1.53;93.54;101842.59;6283760;22;20187;-68
2024/01/20 08:59:58;;;;;;;4.53;4.07;;;1.60;99.90;;;1.55;93.84;101835.34;6281711;22;20520;-69
2024/01/20 09:02:27;;;;;;;7.57;5.72;;;1.60;99.90;;;1.51;93.79;101841.84;6277160;22;20213;-69
2024/01/20 09:04:58;;;;;;;4.00;3.38;;;1.50;99.90;;;1.80;93.77;101844.88;6276767;22;20148;-68
2024/01/20 09:07:26;;;;;;;4.63;2.13;;;1.70;99.90;;;1.97;92.73;101841.72;6275742;22;20184;-69
2024/01/20 09:09:56;;;;;;;2.72;2.53;;;1.80;99.90;;;1.94;92.07;101836.63;6276049;22;20160;-68
2024/01/20 09:12:28;;;;;;;5.00;4.60;;;1.90;99.90;;;1.86;91.89;101847.91;6275948;22;20143;-68
2024/01/20 09:14:56;;;;;;;4.00;3.80;;;1.90;99.90;;;1.93;91.92;101851.81;6275945;22;20202;-67
2024/01/20 09:17:25;;;;;;;5.03;3.60;;;1.90;99.90;;;1.85;91.69;101848.88;6275695;22;20233;-69
2024/01/20 09:19:53;;;;;;;6.15;3.45;;;2.00;99.90;;;1.89;91.94;101854.84;6276331;22;20175;-69
2024/01/20 09:22:22;;;;;;;4.72;2.35;;;1.90;99.90;;;1.84;92.31;101859.72;6277096;22;20160;-69
2024/01/20 09:24:52;;;;;;;2.03;1.70;;;1.90;99.90;;;1.81;91.89;101866.13;6276599;22;20550;-69
2024/01/20 09:27:23;;;;;;;5.38;5.05;;;1.80;99.90;;;1.86;91.65;101873.75;6275953;22;20180;-69
2024/01/20 09:29:53;;;;;;;4.40;4.10;;;1.90;99.90;;;1.85;92.45;101872.06;6275993;22;20156;-70
2024/01/20 09:32:21;;;;;;;1.55;1.45;;;1.90;99.90;;;1.90;92.10;101883.22;6276433;22;20178;-71
2024/01/20 09:34:50;;;;;;;5.22;2.75;;;1.90;99.90;;;1.83;91.50;101893.56;6276107;22;20604;-69
2024/01/20 09:43:11;;;;;;;2.63;2.42;;;1.80;99.90;;;1.85;92.35;101896.94;6235933;22;20216;-70
2024/01/20 09:45:41;;;;;;;2.65;2.47;;;1.80;99.90;;;1.92;92.00;101895.50;6245458;22;20271;-69
2024/01/20 09:48:10;;;;;;;4.15;3.80;;;1.90;99.90;;;2.03;91.15;101902.66;6245402;23;20255;-72
2024/01/20 09:50:39;;;;;;;1.85;1.75;;;2.00;99.90;;;2.18;90.80;101909.41;6245427;23;20268;-68
2024/01/20 09:53:15;;;;;;;4.65;3.63;;;2.10;99.90;;;2.34;90.07;101909.03;6245063;23;20570;-69
2024/01/20 09:55:45;;;;;;;4.15;3.83;;;2.30;99.90;;;2.41;89.77;101910.22;6244971;22;20148;-69
2024/01/20 09:58:15;;;;;;;2.45;2.25;;;2.30;99.90;;;2.49;89.04;101911.31;6244988;23;20232;-69
2024/01/20 10:00:46;;;;;;;4.35;4.05;;;2.50;99.90;;;2.53;88.79;101910.06;6245211;23;20152;-68
2024/01/20 10:03:17;;;;;;;4.78;4.32;;;2.50;99.90;;;2.53;88.08;101909.22;6245765;23;20593;-70
2024/01/20 10:05:46;;;;;;;8.23;5.28;;;2.60;99.90;;;2.65;88.65;101905.56;6245281;22;20222;-69
2024/01/20 10:08:14;;;;;;;2.20;2.10;;;2.60;99.90;;;2.55;88.16;101915.31;6245579;23;20203;-70
2024/01/20 10:10:43;;;;;;;3.42;3.13;;;2.60;99.90;;;2.54;88.63;101905.56;6246992;23;20224;-70
2024/01/20 10:13:11;;;;;;;18.15;3.10;;;2.60;99.90;;;2.70;87.38;101910.53;6247045;23;20218;-72
2024/01/20 10:15:40;;;;;;;3.75;2.63;;;2.70;99.90;;;2.75;87.37;101898.47;6246927;22;20195;-71
2024/01/20 10:18:11;;;;;;;10.43;4.07;;;2.70;99.90;;;2.91;86.07;101917.59;6247004;23;20160;-71
2024/01/20 10:20:40;;;;;;;2.35;2.08;;;2.90;99.90;;;2.91;86.15;101916.75;6247113;23;20157;-69
2024/01/20 10:23:08;;;;;;;5.53;4.55;;;2.90;99.90;;;2.82;86.25;101902.31;6247002;23;20247;-71
2024/01/20 10:25:37;;;;;;;3.45;2.85;;;2.80;99.90;;;2.85;85.93;101914.59;6247074;22;20234;-70
2024/01/20 10:28:07;;;;;;;18.00;3.92;;;2.80;99.90;;;2.73;86.23;101905.75;6247382;23;20168;-74
2024/01/20 10:30:39;;;;;;;3.85;3.00;;;2.80;99.90;;;2.86;85.93;101917.13;6247376;23;20207;-69
2024/01/20 10:33:10;;;;;;;7.68;4.55;;;2.80;99.90;;;2.91;84.26;101909.56;6246850;23;20659;-70
2024/01/20 10:35:39;;;;;;;2.20;2.00;;;2.90;99.90;;;3.11;84.68;101923.09;6246317;22;20597;-71
2024/01/20 10:38:14;;;;;;;1.80;1.70;;;3.00;99.90;;;3.15;84.62;101928.06;6246863;23;20156;-71
2024/01/20 10:40:45;;;;;;;3.95;3.65;;;3.10;99.90;;;3.10;83.30;101929.44;6247240;23;20148;-70
2024/01/20 10:43:15;;;;;;;5.35;4.43;;;3.10;99.90;;;3.09;84.00;101922.41;6247601;23;20167;-70
2024/01/20 10:45:52;;;;;;;10.73;2.25;;;3.10;99.90;;;2.84;84.70;101924.44;6247046;22;20149;-70
2024/01/20 10:48:28;;;;;;;4.63;2.30;;;3.00;99.90;;;2.93;84.73;101929.03;6247185;23;20196;-70